createdAt,value
2024-02-20T00:00:57.629Z,86.55
2024-02-20T00:03:24.872Z,86.61
2024-02-20T00:06:04.559Z,83.16
2024-02-20T00:08:32.132Z,85.05
2024-02-20T00:11:03.010Z,84.60
2024-02-20T00:13:50.107Z,85.65
2024-02-20T00:16:20.711Z,86.19
2024-02-20T00:18:51.580Z,85.51
2024-02-20T00:21:39.994Z,86.08
2024-02-20T00:24:10.742Z,86.59
2024-02-20T00:26:37.861Z,86.34
2024-02-20T00:29:04.931Z,86.40
2024-02-20T00:31:33.753Z,86.38
2024-02-20T00:34:02.136Z,86.04
2024-02-20T00:36:29.839Z,85.82
2024-02-20T00:38:59.162Z,85.70
2024-02-20T00:41:32.572Z,85.20
2024-02-20T00:43:59.588Z,85.21
2024-02-20T00:46:28.331Z,85.25
2024-02-20T00:48:55.960Z,85.45
2024-02-20T00:51:27.360Z,85.59
2024-02-20T00:53:56.604Z,86.19
2024-02-20T00:56:23.616Z,85.86
2024-02-20T00:58:52.217Z,85.21
2024-02-20T01:01:20.050Z,85.79
2024-02-20T01:03:48.589Z,85.57
2024-02-20T01:06:16.161Z,84.51
2024-02-20T01:08:45.085Z,82.33
2024-02-20T01:11:12.338Z,82.12
2024-02-20T01:13:39.917Z,81.51
2024-02-20T01:16:09.164Z,83.00
2024-02-20T01:18:36.189Z,81.88
2024-02-20T01:21:03.666Z,81.18
2024-02-20T01:23:31.258Z,81.16
2024-02-20T01:26:00.215Z,82.45
2024-02-20T01:28:27.579Z,82.63
2024-02-20T01:30:56.540Z,83.04
2024-02-20T01:33:23.861Z,83.36
2024-02-20T01:35:51.332Z,82.98
2024-02-20T01:38:19.005Z,82.97
2024-02-20T01:40:46.564Z,83.82
2024-02-20T01:43:15.771Z,83.99
2024-02-20T01:45:43.887Z,82.57
2024-02-20T01:48:11.502Z,82.01
2024-02-20T01:50:39.229Z,82.97
2024-02-20T01:53:07.674Z,81.81
2024-02-20T01:55:37.353Z,82.95
2024-02-20T01:58:04.979Z,83.53
2024-02-20T02:00:32.514Z,84.14
2024-02-20T02:03:00.088Z,84.04
2024-02-20T02:05:27.842Z,83.93
2024-02-20T02:07:56.286Z,83.99
2024-02-20T02:10:24.835Z,84.20
2024-02-20T02:12:52.457Z,84.50
2024-02-20T02:15:21.396Z,84.71
2024-02-20T02:17:49.687Z,84.67
2024-02-20T02:20:18.326Z,83.99
2024-02-20T02:22:47.601Z,83.67
2024-02-20T02:25:15.540Z,83.56
2024-02-20T02:27:44.609Z,83.59
2024-02-20T02:30:11.704Z,84.28
2024-02-20T02:32:40.341Z,84.21
2024-02-20T02:35:09.582Z,84.31
2024-02-20T02:37:37.534Z,84.33
2024-02-20T02:40:05.234Z,84.64
2024-02-20T02:42:33.727Z,84.52
2024-02-20T02:45:02.340Z,82.75
2024-02-20T02:47:29.899Z,82.62
2024-02-20T02:49:58.663Z,82.88
2024-02-20T02:52:27.266Z,81.65
2024-02-20T02:54:55.781Z,81.87
2024-02-20T02:57:23.354Z,82.37
2024-02-20T02:59:51.988Z,81.99
2024-02-20T03:02:19.525Z,82.62
2024-02-20T03:04:48.203Z,81.88
2024-02-20T03:07:17.574Z,82.93
2024-02-20T03:09:45.405Z,83.43
2024-02-20T03:12:13.982Z,83.34
2024-02-20T03:14:42.582Z,81.66
2024-02-20T03:17:10.213Z,83.25
2024-02-20T03:19:37.871Z,83.75
2024-02-20T03:22:06.472Z,83.27
2024-02-20T03:24:35.367Z,82.66
2024-02-20T03:27:03.631Z,82.07
2024-02-20T03:29:32.244Z,82.26
2024-02-20T03:31:59.830Z,81.94
2024-02-20T03:34:29.123Z,82.53
2024-02-20T03:36:57.079Z,82.83
2024-02-20T03:39:26.332Z,83.33
2024-02-20T03:41:54.306Z,83.03
2024-02-20T03:44:21.874Z,83.41
2024-02-20T03:46:50.586Z,83.27
2024-02-20T03:49:19.401Z,83.17
2024-02-20T03:51:47.705Z,83.17
2024-02-20T03:54:16.329Z,82.33
2024-02-20T03:56:45.220Z,81.40
2024-02-20T03:59:12.516Z,82.85
2024-02-20T04:01:41.760Z,83.45
2024-02-20T04:04:08.864Z,83.31
2024-02-20T04:06:36.283Z,83.24
2024-02-20T04:09:05.271Z,82.65
2024-02-20T04:11:34.147Z,82.18
2024-02-20T04:14:02.047Z,82.71
2024-02-20T04:16:30.826Z,78.86
2024-02-20T04:18:58.576Z,78.31
2024-02-20T04:21:27.039Z,80.56
2024-02-20T04:23:55.620Z,78.84
2024-02-20T04:26:23.225Z,78.81
2024-02-20T04:28:50.833Z,79.47
2024-02-20T04:31:18.442Z,78.91
2024-02-20T04:33:47.040Z,80.69
2024-02-20T04:36:15.607Z,81.86
2024-02-20T04:38:44.718Z,80.52
2024-02-20T04:41:12.824Z,78.98
2024-02-20T04:43:41.470Z,78.46
2024-02-20T04:46:10.445Z,79.79
2024-02-20T04:48:38.660Z,77.55
2024-02-20T04:51:13.368Z,78.29
2024-02-20T04:53:42.404Z,80.49
2024-02-20T04:56:10.466Z,80.84
2024-02-20T04:58:38.174Z,80.22
2024-02-20T05:01:07.589Z,79.47
2024-02-20T05:03:35.474Z,79.52
2024-02-20T05:06:03.122Z,79.20
2024-02-20T05:08:31.762Z,80.00
2024-02-20T05:10:59.397Z,80.25
2024-02-20T05:13:27.948Z,80.56
2024-02-20T05:15:56.517Z,81.16
2024-02-20T05:18:24.120Z,81.32
2024-02-20T05:20:53.005Z,82.37
2024-02-20T05:23:21.314Z,81.55
2024-02-20T05:25:50.516Z,81.32
2024-02-20T05:28:17.557Z,81.14
2024-02-20T05:30:45.075Z,81.44
2024-02-20T05:33:12.798Z,81.49
2024-02-20T05:35:41.329Z,79.89
2024-02-20T05:38:08.913Z,79.72
2024-02-20T05:40:35.543Z,79.80
2024-02-20T05:43:04.193Z,79.26
2024-02-20T05:45:31.679Z,79.79
2024-02-20T05:47:59.499Z,79.47
2024-02-20T05:50:28.438Z,79.89
2024-02-20T05:52:55.533Z,80.88
2024-02-20T05:55:24.425Z,79.87
2024-02-20T05:57:51.806Z,80.25
2024-02-20T06:00:19.428Z,82.09
2024-02-20T06:02:46.993Z,81.23
2024-02-20T06:05:15.963Z,80.83
2024-02-20T06:07:43.322Z,81.21
2024-02-20T06:10:11.871Z,81.46
2024-02-20T06:12:40.926Z,82.62
2024-02-20T06:15:08.113Z,82.79
2024-02-20T06:17:37.092Z,82.72
2024-02-20T06:20:04.508Z,81.48
2024-02-20T06:22:33.271Z,81.93
2024-02-20T06:25:00.580Z,83.80
2024-02-20T06:27:28.219Z,84.19
2024-02-20T06:29:55.815Z,83.59
2024-02-20T06:32:23.343Z,82.26
2024-02-20T06:34:50.582Z,81.97
2024-02-20T06:37:18.595Z,83.46
2024-02-20T06:39:47.539Z,83.71
2024-02-20T06:42:14.715Z,82.40
2024-02-20T06:44:42.323Z,81.64
2024-02-20T06:47:09.891Z,81.35
2024-02-20T06:49:38.690Z,82.06
2024-02-20T06:52:07.243Z,82.26
2024-02-20T06:54:35.826Z,81.74
2024-02-20T06:57:03.408Z,82.32
2024-02-20T06:59:30.073Z,82.65
2024-02-20T07:01:58.773Z,82.29
2024-02-20T07:04:26.412Z,82.21
2024-02-20T07:06:53.941Z,81.12
2024-02-20T07:09:25.424Z,80.95
2024-02-20T07:11:53.096Z,81.82
2024-02-20T07:14:20.652Z,82.32
2024-02-20T07:16:48.311Z,80.60
2024-02-20T07:19:15.936Z,79.63
2024-02-20T07:21:43.542Z,80.61
2024-02-20T07:24:11.091Z,81.34
2024-02-20T07:26:37.702Z,81.03
2024-02-20T07:29:06.813Z,78.91
2024-02-20T07:31:36.408Z,80.03
2024-02-20T07:34:09.978Z,80.84
2024-02-20T07:36:38.145Z,80.68
2024-02-20T07:39:07.093Z,79.88
2024-02-20T07:41:35.372Z,77.85
2024-02-20T07:44:02.966Z,76.18
2024-02-20T07:46:31.575Z,74.41
2024-02-20T07:49:00.275Z,74.89
2024-02-20T07:51:27.722Z,74.69
2024-02-20T07:53:55.323Z,74.95
2024-02-20T07:56:23.905Z,77.05
2024-02-20T07:58:51.560Z,76.82
2024-02-20T08:01:22.398Z,75.71
2024-02-20T08:03:49.733Z,75.68
2024-02-20T08:06:17.305Z,78.01
2024-02-20T08:08:45.901Z,78.53
2024-02-20T08:11:13.609Z,79.48
2024-02-20T08:13:42.153Z,79.58
2024-02-20T08:16:09.741Z,80.23
2024-02-20T08:18:37.377Z,80.66
2024-02-20T08:21:04.891Z,80.30
2024-02-20T08:23:32.494Z,79.69
2024-02-20T08:26:00.066Z,78.10
2024-02-20T08:28:29.077Z,78.49
2024-02-20T08:30:56.330Z,79.20
2024-02-20T08:33:23.918Z,79.41
2024-02-20T08:35:51.467Z,78.91
2024-02-20T08:38:20.082Z,78.87
2024-02-20T08:40:47.649Z,79.04
2024-02-20T08:43:16.281Z,79.10
2024-02-20T08:45:43.830Z,79.98
2024-02-20T08:48:10.652Z,80.02
2024-02-20T08:50:38.143Z,80.59
2024-02-20T08:55:45.432Z,79.70
2024-02-20T08:58:12.981Z,79.49
2024-02-20T09:00:41.679Z,80.21
2024-02-20T09:03:09.129Z,79.81
2024-02-20T09:05:36.962Z,79.09
2024-02-20T09:08:06.387Z,78.24
2024-02-20T09:10:35.009Z,77.80
2024-02-20T09:13:03.586Z,77.91
2024-02-20T09:15:32.143Z,76.15
2024-02-20T09:18:00.794Z,75.83
2024-02-20T09:20:29.489Z,77.11
2024-02-20T09:22:58.490Z,76.61
2024-02-20T09:25:26.538Z,75.83
2024-02-20T09:27:55.741Z,74.84
2024-02-20T09:30:23.695Z,73.51
2024-02-20T09:32:53.067Z,73.62
2024-02-20T09:35:22.797Z,73.46
2024-02-20T09:37:50.527Z,71.34
2024-02-20T09:40:22.389Z,71.30
2024-02-20T09:42:50.766Z,71.33
2024-02-20T09:45:19.999Z,71.22
2024-02-20T09:50:30.951Z,69.68
2024-02-20T09:53:00.217Z,70.09
2024-02-20T09:55:28.948Z,71.31
2024-02-20T09:57:56.704Z,69.37
2024-02-20T10:00:23.577Z,69.86
2024-02-20T10:02:50.490Z,70.52
2024-02-20T10:05:19.972Z,69.54
2024-02-20T10:07:47.788Z,68.10
2024-02-20T10:10:15.346Z,65.36
2024-02-20T10:12:42.948Z,65.61
2024-02-20T10:15:11.473Z,65.18
2024-02-20T10:17:40.439Z,65.90
2024-02-20T10:20:08.792Z,63.72
2024-02-20T10:22:36.336Z,64.40
2024-02-20T10:25:05.056Z,64.46
2024-02-20T10:27:32.447Z,65.01
2024-02-20T10:30:00.044Z,63.60
2024-02-20T10:32:27.668Z,63.28
2024-02-20T10:34:55.303Z,62.22
2024-02-20T10:37:22.448Z,63.07
2024-02-20T10:39:48.939Z,62.69
2024-02-20T10:42:15.437Z,63.14
2024-02-20T10:44:41.945Z,62.81
2024-02-20T10:47:09.197Z,62.29
2024-02-20T10:49:36.757Z,61.06
2024-02-20T10:52:03.786Z,62.75
2024-02-20T10:54:39.113Z,61.22
2024-02-20T10:57:12.565Z,60.56
2024-02-20T10:59:39.078Z,60.08
2024-02-20T11:02:05.793Z,61.68
2024-02-20T11:04:33.377Z,59.61
2024-02-20T11:07:01.010Z,59.57
2024-02-20T11:09:28.520Z,58.77
2024-02-20T11:11:56.102Z,59.04
2024-02-20T11:14:22.612Z,57.72
2024-02-20T11:16:51.674Z,58.67
2024-02-20T11:19:19.053Z,55.94
2024-02-20T11:21:47.499Z,56.42
2024-02-20T11:24:17.807Z,58.30
2024-02-20T11:26:45.695Z,57.78
2024-02-20T11:29:12.283Z,57.03
2024-02-20T11:31:38.848Z,55.67
2024-02-20T11:34:07.659Z,56.66
2024-02-20T11:36:35.076Z,56.28
2024-02-20T11:39:03.669Z,55.87
2024-02-20T11:41:31.255Z,55.46
2024-02-20T11:43:58.843Z,53.82
2024-02-20T11:46:27.487Z,55.77
2024-02-20T11:48:55.114Z,57.97
2024-02-20T11:51:21.877Z,54.22
2024-02-20T11:53:49.295Z,53.94
2024-02-20T11:56:16.969Z,54.78
2024-02-20T11:58:44.549Z,55.51
2024-02-20T12:01:12.070Z,53.89
2024-02-20T12:03:39.600Z,55.52
2024-02-20T12:06:07.005Z,54.15
2024-02-20T12:08:34.020Z,54.26
2024-02-20T12:11:01.527Z,55.85
2024-02-20T12:13:28.986Z,50.90
2024-02-20T12:15:55.532Z,52.35
2024-02-20T12:18:23.215Z,52.95
2024-02-20T12:20:52.357Z,52.38
2024-02-20T12:23:20.351Z,53.18
2024-02-20T12:25:48.093Z,52.20
2024-02-20T12:28:16.529Z,51.97
2024-02-20T12:30:44.119Z,52.95
2024-02-20T12:33:11.791Z,54.40
2024-02-20T12:35:40.350Z,53.17
2024-02-20T12:38:07.918Z,54.59
2024-02-20T12:40:34.803Z,52.83
2024-02-20T12:43:02.671Z,53.42
2024-02-20T12:45:29.217Z,55.20
2024-02-20T12:47:57.318Z,51.86
2024-02-20T12:50:24.885Z,54.65
2024-02-20T12:52:52.474Z,55.22
2024-02-20T12:55:20.087Z,56.50
2024-02-20T12:57:47.662Z,55.32
2024-02-20T13:00:15.238Z,56.07
2024-02-20T13:02:41.904Z,54.42
2024-02-20T13:05:09.566Z,55.58
2024-02-20T13:07:37.082Z,55.94
2024-02-20T13:10:04.669Z,54.83
2024-02-20T13:12:32.204Z,55.51
2024-02-20T13:14:59.200Z,55.89
2024-02-20T13:17:26.494Z,54.71
2024-02-20T13:19:54.048Z,53.82
2024-02-20T13:22:21.576Z,55.32
2024-02-20T13:24:48.165Z,55.10
2024-02-20T13:27:15.785Z,53.20
2024-02-20T13:29:42.296Z,52.96
2024-02-20T13:32:10.973Z,53.30
2024-02-20T13:34:39.651Z,53.33
2024-02-20T13:37:07.142Z,51.51
2024-02-20T13:39:34.742Z,51.97
2024-02-20T13:42:01.670Z,56.23
2024-02-20T13:44:28.912Z,52.82
2024-02-20T13:47:03.334Z,54.12
2024-02-20T13:49:34.198Z,54.84
2024-02-20T13:52:02.913Z,54.57
2024-02-20T13:54:30.354Z,53.07
2024-02-20T13:56:58.971Z,50.06
2024-02-20T13:59:26.512Z,51.69
2024-02-20T14:01:53.046Z,50.76
2024-02-20T14:04:19.663Z,49.17
2024-02-20T14:06:46.311Z,54.11
2024-02-20T14:09:12.966Z,53.56
2024-02-20T14:11:39.546Z,54.75
2024-02-20T14:14:06.066Z,52.81
2024-02-20T14:16:32.635Z,55.69
2024-02-20T14:19:00.284Z,53.72
2024-02-20T14:21:27.846Z,53.25
2024-02-20T14:23:55.460Z,52.96
2024-02-20T14:26:25.681Z,54.00
2024-02-20T14:28:52.594Z,53.08
2024-02-20T14:31:19.346Z,54.58
2024-02-20T14:33:46.041Z,52.86
2024-02-20T14:36:13.402Z,53.89
2024-02-20T14:38:40.328Z,52.86
2024-02-20T14:41:07.551Z,53.10
2024-02-20T14:43:35.193Z,54.50
2024-02-20T14:46:02.826Z,53.58
2024-02-20T14:48:30.381Z,53.57
2024-02-20T14:50:57.916Z,52.45
2024-02-20T14:53:25.520Z,52.68
2024-02-20T14:55:52.094Z,52.60
2024-02-20T14:58:18.749Z,50.67
2024-02-20T15:00:46.310Z,53.28
2024-02-20T15:03:13.890Z,53.99
2024-02-20T15:05:40.630Z,54.34
2024-02-20T15:08:08.112Z,55.25
2024-02-20T15:10:34.718Z,55.42
2024-02-20T15:13:01.244Z,53.58
2024-02-20T15:15:27.852Z,53.52
2024-02-20T15:17:54.455Z,55.51
2024-02-20T15:20:22.076Z,54.85
2024-02-20T15:22:49.722Z,55.18
2024-02-20T15:25:17.967Z,53.56
2024-02-20T15:27:45.827Z,54.19
2024-02-20T15:30:13.417Z,52.60
2024-02-20T15:32:41.191Z,53.60
2024-02-20T15:35:09.046Z,53.74
2024-02-20T15:37:35.746Z,54.96
2024-02-20T15:40:02.829Z,53.85
2024-02-20T15:42:29.763Z,54.56
2024-02-20T15:44:56.999Z,54.93
2024-02-20T15:47:24.618Z,54.67
2024-02-20T15:49:52.255Z,54.93
2024-02-20T15:52:18.827Z,55.56
2024-02-20T15:54:45.376Z,55.01
2024-02-20T15:57:11.901Z,55.22
2024-02-20T15:59:38.553Z,56.29
2024-02-20T16:02:05.223Z,56.04
2024-02-20T16:04:32.810Z,56.61
2024-02-20T16:07:00.383Z,57.67
2024-02-20T16:09:27.974Z,57.99
2024-02-20T16:11:54.772Z,55.43
2024-02-20T16:14:21.272Z,57.00
2024-02-20T16:16:47.793Z,57.24
2024-02-20T16:19:15.432Z,58.04
2024-02-20T16:21:42.884Z,58.89
2024-02-20T16:24:09.383Z,58.93
2024-02-20T16:26:37.613Z,59.40
2024-02-20T16:36:59.576Z,61.86
2024-02-20T16:39:47.340Z,62.29
2024-02-20T16:42:15.966Z,63.61
2024-02-20T16:44:43.815Z,64.37
2024-02-20T16:47:12.481Z,64.68
2024-02-20T16:49:40.230Z,65.23
2024-02-20T16:52:07.717Z,66.49
2024-02-20T16:54:35.217Z,67.34
2024-02-20T16:57:03.824Z,67.69
2024-02-20T16:59:37.266Z,68.02
2024-02-20T17:02:11.163Z,68.40
2024-02-20T17:04:39.827Z,68.72
2024-02-20T17:07:09.200Z,69.20
2024-02-20T17:09:37.895Z,68.96
2024-02-20T17:12:07.216Z,69.18
2024-02-20T17:14:42.137Z,69.35
2024-02-20T17:17:10.936Z,69.61
2024-02-20T17:19:40.413Z,69.92
2024-02-20T17:22:09.404Z,70.03
2024-02-20T17:24:38.478Z,69.52
2024-02-20T17:27:30.388Z,69.36
2024-02-20T17:30:03.485Z,69.57
2024-02-20T17:32:30.590Z,69.56
2024-02-20T17:34:59.193Z,69.51
2024-02-20T17:37:28.293Z,69.59
2024-02-20T17:40:06.279Z,69.63
2024-02-20T17:42:55.953Z,70.11
2024-02-20T17:45:26.544Z,70.43
2024-02-20T17:47:56.261Z,70.91
2024-02-20T17:50:24.872Z,71.03
2024-02-20T17:53:06.589Z,71.01
2024-02-20T17:55:35.145Z,70.32
2024-02-20T17:58:07.169Z,70.77
2024-02-20T18:00:44.369Z,70.74
2024-02-20T18:05:53.631Z,70.81
2024-02-20T18:08:22.151Z,70.82
2024-02-20T18:10:51.008Z,71.61
2024-02-20T18:13:19.380Z,71.45
2024-02-20T18:15:48.275Z,71.50
2024-02-20T18:18:15.613Z,71.94
2024-02-20T18:20:43.128Z,71.62
2024-02-20T18:23:10.710Z,72.23
2024-02-20T18:25:45.226Z,71.86
2024-02-20T18:28:12.137Z,72.38
2024-02-20T18:30:40.510Z,71.96
2024-02-20T18:33:09.325Z,72.32
2024-02-20T18:35:37.949Z,72.32
2024-02-20T18:38:06.525Z,71.74
2024-02-20T18:40:35.085Z,72.34
2024-02-20T18:43:02.605Z,72.38
2024-02-20T18:45:30.483Z,71.77
2024-02-20T18:47:58.001Z,72.29
2024-02-20T18:50:26.920Z,72.13
2024-02-20T18:52:55.197Z,72.06
2024-02-20T18:55:29.687Z,71.71
2024-02-20T18:57:58.577Z,72.12
2024-02-20T19:00:26.878Z,71.67
2024-02-20T19:02:54.542Z,71.27
2024-02-20T19:05:23.706Z,71.26
2024-02-20T19:07:51.651Z,71.45
2024-02-20T19:10:19.347Z,71.56
2024-02-20T19:12:47.808Z,71.09
2024-02-20T19:15:16.847Z,71.21
2024-02-20T19:17:45.078Z,71.31
2024-02-20T19:20:12.694Z,70.46
2024-02-20T19:22:41.955Z,70.38
2024-02-20T19:25:09.881Z,70.19
2024-02-20T19:27:39.344Z,70.21
2024-02-20T19:30:06.004Z,70.55
2024-02-20T19:32:33.608Z,70.04
2024-02-20T19:35:01.258Z,70.67
2024-02-20T19:37:30.583Z,70.56
2024-02-20T19:39:58.357Z,70.68
2024-02-20T19:42:26.155Z,71.09
2024-02-20T19:44:54.592Z,71.14
2024-02-20T19:47:22.188Z,70.90
2024-02-20T19:49:51.260Z,71.19
2024-02-20T19:52:18.515Z,71.66
2024-02-20T19:54:46.057Z,70.92
2024-02-20T19:57:15.065Z,71.31
2024-02-20T19:59:43.210Z,71.72
2024-02-20T20:02:12.135Z,71.54
2024-02-20T20:04:40.478Z,71.52
2024-02-20T20:07:09.362Z,71.97
2024-02-20T20:12:21.214Z,71.60
2024-02-20T20:14:49.979Z,71.31
2024-02-20T20:17:17.504Z,71.34
2024-02-20T20:19:45.124Z,71.67
2024-02-20T20:22:14.035Z,71.33
2024-02-20T20:24:41.273Z,71.05
2024-02-20T20:27:08.813Z,71.40
2024-02-20T20:29:37.440Z,71.45
2024-02-20T20:32:04.989Z,71.17
2024-02-20T20:34:33.954Z,71.47
2024-02-20T20:37:03.104Z,71.68
2024-02-20T20:39:30.820Z,71.24
2024-02-20T20:41:58.385Z,71.43
2024-02-20T20:44:27.490Z,71.30
2024-02-20T20:46:54.740Z,71.33
2024-02-20T20:49:23.906Z,70.76
2024-02-20T20:51:52.784Z,70.88
2024-02-20T20:54:20.382Z,70.67
2024-02-20T20:56:55.684Z,70.93
2024-02-20T20:59:29.187Z,71.40
2024-02-20T21:01:56.304Z,71.82
2024-02-20T21:04:27.471Z,71.58
2024-02-20T21:06:57.452Z,71.77
2024-02-20T21:12:12.381Z,72.05
2024-02-20T21:17:27.980Z,71.82
2024-02-20T21:19:38.833Z,71.90
2024-02-20T21:20:12.784Z,71.06
2024-02-20T21:22:44.544Z,71.67
2024-02-20T21:25:12.868Z,71.24
2024-02-20T21:27:43.745Z,72.00
2024-02-20T21:30:22.484Z,71.46
2024-02-20T21:35:16.919Z,72.66
2024-02-20T21:35:55.724Z,72.07
2024-02-20T21:43:48.392Z,72.73
2024-02-20T22:03:07.872Z,72.32
2024-02-20T22:19:25.011Z,71.70
2024-02-20T22:22:04.507Z,71.98
2024-02-20T22:24:31.238Z,71.55
2024-02-20T22:26:58.860Z,72.13
2024-02-20T22:29:27.774Z,71.38
2024-02-20T22:31:56.432Z,71.96
2024-02-20T22:34:46.272Z,72.28
2024-02-20T22:37:14.324Z,72.56
2024-02-20T22:40:28.692Z,73.08
2024-02-20T22:42:31.625Z,73.21
2024-02-20T22:44:59.252Z,73.04
2024-02-20T22:47:57.296Z,72.57
2024-02-20T22:50:38.643Z,73.10
2024-02-20T22:53:07.921Z,72.72
2024-02-20T22:56:06.229Z,72.15
2024-02-20T22:58:36.901Z,72.34
2024-02-20T23:03:45.851Z,72.21
2024-02-20T23:07:00.939Z,71.89
2024-02-20T23:09:04.223Z,72.11
2024-02-20T23:11:35.636Z,72.37
2024-02-20T23:14:04.410Z,72.11
2024-02-20T23:16:33.783Z,72.29
2024-02-20T23:19:06.353Z,72.15
2024-02-20T23:21:36.875Z,71.89
2024-02-20T23:27:04.492Z,72.42
2024-02-20T23:30:18.506Z,72.86
2024-02-20T23:32:25.149Z,72.93
2024-02-20T23:34:54.941Z,73.34
2024-02-20T23:37:26.164Z,73.48
2024-02-20T23:40:05.571Z,73.07
2024-02-20T23:45:26.569Z,73.57
2024-02-20T23:47:57.563Z,73.31
2024-02-20T23:56:58.840Z,74.04
2024-02-20T23:59:56.565Z,73.84
